Rechercher aéroport 
image banner adimage banner adimage banner ad
image banner ad

KRIR - Flabob

Situé à Riverside/Rubidoux/, United States

ICAO - RIR, IATA -

Données fournies par Airmate  

Information générale

Coordonnées: N33°59'20" W117°24'36"
Élévation : 767 feet MSL.
Variation magnétique : 13° East
Voir autres Aéroports à California

Données opérationnelles

Special qualification required
Heure actuelle UTC:
Heure actuelle locale:
Météo à : KRAL - Riverside Muni ( 5 km )
METAR: KRAL 020553Z AUTO 28003KT 10SM CLR 25/07 A3004 RMK AO2 SLP156 T02500072 10339 20250 51011
Voir NOTAMs / SUP AIP / TFR affectant cet aéroport [VIEW]
Fréquences de communication: [VIEW]

Pistes:

Identifiant RWYQFULongueur (ft)Largeur (ft)SurfaceLDA (ft)
0677°319050ASPH
24257°319050ASPH

Coordonnées de l'aéroport

Adresse: Riverside/Rubidoux/ United States

Vue satellite de KRIR